GTIC73 KSAN-KLAS
Flight info
| Callsign | GTIC73 |
|---|---|
| Flight time | 0h 51m |
| Altitude | 29000 |
| Route | PADRZ2 CHKNN SEBBY YELAH MISEN RNDRZ4 |
| Aircraft | B748/H-SDE3FGHIM1M2RWXY/LB1 |
Departure
| Time | 2026-05-03 23:20 |
|---|---|
| Airport | San Diego International Airport (KSAN) |
Arrival
| Time | 2026-05-04 00:12 |
|---|---|
| Airport | Harry Reid International Airport (KLAS) |
| Time | Latitude | Longitude | Altitude | Speed | Heading |
|---|---|---|---|---|---|
| 2026-05-03 23:00 | 32.73660 | -117.18504 | 33 ft | 0 kts | 354° |
| 2026-05-03 23:09 | 32.73636 | -117.18502 | 29 ft | 4 kts | 3° |
| 2026-05-03 23:09 | 32.73610 | -117.18507 | 30 ft | 4 kts | 28° |
| 2026-05-03 23:09 | 32.73596 | -117.18520 | 28 ft | 4 kts | 113° |
| 2026-05-03 23:09 | 32.73600 | -117.18526 | 29 ft | 1 kts | 142° |
| 2026-05-03 23:10 | 32.73601 | -117.18526 | 29 ft | 0 kts | 142° |
| 2026-05-03 23:15 | 32.73594 | -117.18520 | 28 ft | 3 kts | 142° |
| 2026-05-03 23:15 | 32.73565 | -117.18494 | 29 ft | 7 kts | 142° |
| 2026-05-03 23:16 | 32.73516 | -117.18450 | 31 ft | 11 kts | 142° |
| 2026-05-03 23:16 | 32.73449 | -117.18396 | 30 ft | 13 kts | 158° |
| 2026-05-03 23:16 | 32.73369 | -117.18404 | 30 ft | 9 kts | 185° |
| 2026-05-03 23:16 | 32.73339 | -117.18385 | 30 ft | 5 kts | 134° |
| 2026-05-03 23:17 | 32.73322 | -117.18344 | 30 ft | 7 kts | 108° |
| 2026-05-03 23:17 | 32.73305 | -117.18280 | 30 ft | 10 kts | 106° |
| 2026-05-03 23:17 | 32.73283 | -117.18189 | 30 ft | 13 kts | 106° |
| 2026-05-03 23:17 | 32.73255 | -117.18072 | 30 ft | 16 kts | 106° |
| 2026-05-03 23:18 | 32.73220 | -117.17929 | 30 ft | 20 kts | 106° |
| 2026-05-03 23:18 | 32.73179 | -117.17761 | 30 ft | 23 kts | 106° |
| 2026-05-03 23:18 | 32.73128 | -117.17585 | 30 ft | 22 kts | 124° |
| 2026-05-03 23:18 | 32.73023 | -117.17538 | 30 ft | 10 kts | 218° |
| 2026-05-03 23:19 | 32.73015 | -117.17583 | 30 ft | 4 kts | 283° |
| 2026-05-03 23:19 | 32.73019 | -117.17598 | 30 ft | 0 kts | 287° |
| 2026-05-03 23:19 | 32.73019 | -117.17599 | 30 ft | 1 kts | 287° |
| 2026-05-03 23:19 | 32.73049 | -117.17713 | 30 ft | 56 kts | 287° |
| 2026-05-03 23:20 | 32.73258 | -117.18581 | 40 ft | 162 kts | 285° |
| 2026-05-03 23:20 | 32.73578 | -117.19986 | 1166 ft | 169 kts | 284° |
| 2026-05-03 23:20 | 32.74092 | -117.21125 | 2232 ft | 161 kts | 303° |
| 2026-05-03 23:20 | 32.74803 | -117.22315 | 2362 ft | 187 kts | 303° |
| 2026-05-03 23:21 | 32.75557 | -117.23662 | 2550 ft | 203 kts | 301° |
| 2026-05-03 23:21 | 32.76339 | -117.25122 | 2787 ft | 217 kts | 301° |
| 2026-05-03 23:21 | 32.77184 | -117.26712 | 2948 ft | 237 kts | 301° |
| 2026-05-03 23:21 | 32.78095 | -117.28414 | 3174 ft | 250 kts | 301° |
| 2026-05-03 23:22 | 32.80034 | -117.31954 | 4097 ft | 262 kts | 305° |
| 2026-05-03 23:22 | 32.81172 | -117.33668 | 4574 ft | 265 kts | 305° |
| 2026-05-03 23:22 | 32.82285 | -117.35433 | 5006 ft | 268 kts | 304° |
| 2026-05-03 23:23 | 32.83416 | -117.37210 | 5364 ft | 271 kts | 304° |
| 2026-05-03 23:23 | 32.84574 | -117.38996 | 5699 ft | 274 kts | 304° |
| 2026-05-03 23:23 | 32.85746 | -117.40804 | 5975 ft | 277 kts | 303° |
| 2026-05-03 23:23 | 32.86928 | -117.42641 | 6275 ft | 281 kts | 303° |
| 2026-05-03 23:24 | 32.88121 | -117.44497 | 6590 ft | 283 kts | 303° |
| 2026-05-03 23:24 | 32.89326 | -117.46368 | 6917 ft | 286 kts | 303° |
| 2026-05-03 23:24 | 32.90536 | -117.48248 | 7158 ft | 286 kts | 303° |
| 2026-05-03 23:24 | 32.91747 | -117.50130 | 7396 ft | 285 kts | 303° |
| 2026-05-03 23:25 | 32.92952 | -117.52003 | 7627 ft | 285 kts | 303° |
| 2026-05-03 23:25 | 32.94154 | -117.53876 | 7850 ft | 285 kts | 303° |
| 2026-05-03 23:25 | 32.95360 | -117.55756 | 8087 ft | 286 kts | 303° |
| 2026-05-03 23:25 | 32.96496 | -117.57530 | 8299 ft | 286 kts | 303° |
| 2026-05-03 23:26 | 32.97710 | -117.59422 | 8515 ft | 287 kts | 303° |
| 2026-05-03 23:26 | 32.98922 | -117.61314 | 8717 ft | 288 kts | 303° |
| 2026-05-03 23:26 | 33.00112 | -117.63170 | 9191 ft | 281 kts | 303° |
| 2026-05-03 23:26 | 33.01311 | -117.65044 | 9879 ft | 288 kts | 302° |
| 2026-05-03 23:27 | 33.02540 | -117.66972 | 10543 ft | 298 kts | 302° |
| 2026-05-03 23:27 | 33.03825 | -117.68986 | 11068 ft | 313 kts | 303° |
| 2026-05-03 23:27 | 33.05180 | -117.71107 | 11525 ft | 330 kts | 303° |
| 2026-05-03 23:27 | 33.06682 | -117.73279 | 11946 ft | 352 kts | 312° |
| 2026-05-03 23:28 | 33.08565 | -117.75273 | 12337 ft | 372 kts | 316° |
| 2026-05-03 23:28 | 33.10604 | -117.77261 | 12959 ft | 384 kts | 316° |
| 2026-05-03 23:28 | 33.12674 | -117.79315 | 13717 ft | 390 kts | 315° |
| 2026-05-03 23:28 | 33.14735 | -117.81441 | 14441 ft | 394 kts | 314° |
| 2026-05-03 23:29 | 33.16812 | -117.83585 | 15214 ft | 396 kts | 314° |
| 2026-05-03 23:29 | 33.18922 | -117.85726 | 16001 ft | 399 kts | 314° |
| 2026-05-03 23:29 | 33.21085 | -117.87822 | 16769 ft | 402 kts | 314° |
| 2026-05-03 23:29 | 33.23248 | -117.89934 | 17540 ft | 403 kts | 313° |
| 2026-05-03 23:30 | 33.25413 | -117.92074 | 18281 ft | 404 kts | 313° |
| 2026-05-03 23:30 | 33.27598 | -117.94210 | 18908 ft | 406 kts | 313° |
| 2026-05-03 23:30 | 33.29798 | -117.96345 | 19508 ft | 408 kts | 313° |
| 2026-05-03 23:30 | 33.32002 | -117.98495 | 20093 ft | 410 kts | 312° |
| 2026-05-03 23:31 | 33.34213 | -118.00664 | 20659 ft | 412 kts | 312° |
| 2026-05-03 23:31 | 33.36436 | -118.02843 | 21194 ft | 414 kts | 312° |
| 2026-05-03 23:31 | 33.38673 | -118.05031 | 21750 ft | 416 kts | 312° |
| 2026-05-03 23:31 | 33.40921 | -118.07232 | 22252 ft | 419 kts | 312° |
| 2026-05-03 23:32 | 33.43247 | -118.09367 | 22731 ft | 429 kts | 319° |
| 2026-05-03 23:32 | 33.45991 | -118.10945 | 23220 ft | 448 kts | 332° |
| 2026-05-03 23:32 | 33.49063 | -118.11793 | 23657 ft | 466 kts | 344° |
| 2026-05-03 23:32 | 33.52389 | -118.11845 | 24031 ft | 485 kts | 357° |
| 2026-05-03 23:33 | 33.55772 | -118.11048 | 24391 ft | 502 kts | 9° |
| 2026-05-03 23:33 | 33.59018 | -118.09432 | 24728 ft | 517 kts | 22° |
| 2026-05-03 23:33 | 33.62029 | -118.07017 | 25189 ft | 527 kts | 33° |
| 2026-05-03 23:33 | 33.64775 | -118.04069 | 25646 ft | 530 kts | 38° |
| 2026-05-03 23:34 | 33.67434 | -118.01011 | 26099 ft | 529 kts | 38° |
| 2026-05-03 23:34 | 33.70151 | -117.98051 | 26595 ft | 526 kts | 34° |
| 2026-05-03 23:34 | 33.73006 | -117.95327 | 27098 ft | 521 kts | 28° |
| 2026-05-03 23:34 | 33.76052 | -117.93039 | 27615 ft | 510 kts | 18° |
| 2026-05-03 23:35 | 33.79318 | -117.91390 | 28238 ft | 499 kts | 9° |
| 2026-05-03 23:35 | 33.82607 | -117.90118 | 28811 ft | 495 kts | 6° |
| 2026-05-03 23:35 | 33.85906 | -117.88910 | 28974 ft | 498 kts | 8° |
| 2026-05-03 23:35 | 33.88922 | -117.87566 | 28970 ft | 501 kts | 13° |
| 2026-05-03 23:36 | 33.95318 | -117.84185 | 28973 ft | 499 kts | 12° |
| 2026-05-03 23:36 | 34.01768 | -117.81232 | 28991 ft | 497 kts | 11° |
| 2026-05-03 23:37 | 34.08225 | -117.77890 | 29003 ft | 508 kts | 21° |
| 2026-05-03 23:37 | 34.11105 | -117.75500 | 29010 ft | 522 kts | 34° |
| 2026-05-03 23:37 | 34.13672 | -117.72343 | 29008 ft | 532 kts | 46° |
| 2026-05-03 23:38 | 34.17921 | -117.64960 | 28992 ft | 537 kts | 53° |
| 2026-05-03 23:38 | 34.22344 | -117.57762 | 28992 ft | 530 kts | 44° |
| 2026-05-03 23:39 | 34.27250 | -117.51144 | 28973 ft | 529 kts | 45° |
| 2026-05-03 23:39 | 34.31818 | -117.44130 | 28925 ft | 529 kts | 46° |
| 2026-05-03 23:40 | 34.36543 | -117.37329 | 28927 ft | 528 kts | 45° |
| 2026-05-03 23:40 | 34.41175 | -117.30417 | 28895 ft | 529 kts | 46° |
| 2026-05-03 23:41 | 34.45843 | -117.23546 | 28911 ft | 528 kts | 45° |
| 2026-05-03 23:41 | 34.50496 | -117.16644 | 28863 ft | 528 kts | 46° |
| 2026-05-03 23:42 | 34.55133 | -117.09757 | 28841 ft | 527 kts | 46° |
| 2026-05-03 23:42 | 34.59771 | -117.02867 | 28830 ft | 527 kts | 46° |
| 2026-05-03 23:43 | 34.64404 | -116.95955 | 28814 ft | 527 kts | 46° |
| 2026-05-03 23:43 | 34.69033 | -116.89048 | 28800 ft | 527 kts | 46° |
| 2026-05-03 23:44 | 34.73651 | -116.82136 | 28792 ft | 526 kts | 46° |
| 2026-05-03 23:44 | 34.78261 | -116.75228 | 28817 ft | 524 kts | 46° |
| 2026-05-03 23:45 | 34.82864 | -116.68312 | 28735 ft | 526 kts | 46° |
| 2026-05-03 23:45 | 34.85196 | -116.64867 | 28083 ft | 525 kts | 42° |
| 2026-05-03 23:45 | 34.87836 | -116.61854 | 27485 ft | 517 kts | 33° |
| 2026-05-03 23:46 | 34.90667 | -116.59179 | 26919 ft | 514 kts | 30° |
| 2026-05-03 23:46 | 34.93568 | -116.56638 | 26326 ft | 514 kts | 30° |
| 2026-05-03 23:46 | 34.96412 | -116.53974 | 25752 ft | 517 kts | 34° |
| 2026-05-03 23:46 | 34.99161 | -116.51153 | 25142 ft | 514 kts | 35° |
| 2026-05-03 23:47 | 35.01869 | -116.48429 | 24398 ft | 494 kts | 33° |
| 2026-05-03 23:47 | 35.04583 | -116.45874 | 23903 ft | 494 kts | 32° |
| 2026-05-03 23:47 | 35.07309 | -116.43295 | 23758 ft | 496 kts | 33° |
| 2026-05-03 23:47 | 35.10029 | -116.40585 | 23775 ft | 518 kts | 37° |
| 2026-05-03 23:48 | 35.12606 | -116.37428 | 23769 ft | 526 kts | 43° |
| 2026-05-03 23:48 | 35.15086 | -116.34135 | 23761 ft | 527 kts | 44° |
| 2026-05-03 23:48 | 35.17538 | -116.30893 | 23668 ft | 525 kts | 43° |
| 2026-05-03 23:48 | 35.20050 | -116.27681 | 23187 ft | 520 kts | 43° |
| 2026-05-03 23:49 | 35.22541 | -116.24504 | 22517 ft | 514 kts | 45° |
| 2026-05-03 23:49 | 35.24881 | -116.21251 | 21884 ft | 505 kts | 47° |
| 2026-05-03 23:49 | 35.27202 | -116.18065 | 21287 ft | 497 kts | 46° |
| 2026-05-03 23:49 | 35.29505 | -116.14960 | 20698 ft | 488 kts | 47° |
| 2026-05-03 23:50 | 35.31749 | -116.11897 | 20109 ft | 479 kts | 48° |
| 2026-05-03 23:50 | 35.33233 | -116.09844 | 19722 ft | 474 kts | 48° |
| 2026-05-03 23:50 | 35.36082 | -116.05910 | 18778 ft | 453 kts | 49° |
| 2026-05-03 23:50 | 35.38154 | -116.03075 | 17342 ft | 437 kts | 49° |
| 2026-05-03 23:51 | 35.40149 | -116.00339 | 15834 ft | 423 kts | 50° |
| 2026-05-03 23:51 | 35.41459 | -115.98535 | 14779 ft | 416 kts | 50° |
| 2026-05-03 23:51 | 35.43956 | -115.95083 | 13159 ft | 397 kts | 51° |
| 2026-05-03 23:51 | 35.45704 | -115.92671 | 12969 ft | 358 kts | 51° |
| 2026-05-03 23:52 | 35.46761 | -115.91219 | 12970 ft | 334 kts | 51° |
| 2026-05-03 23:52 | 35.48294 | -115.89102 | 12985 ft | 333 kts | 51° |
| 2026-05-03 23:52 | 35.49821 | -115.86982 | 13009 ft | 330 kts | 51° |
| 2026-05-03 23:52 | 35.51342 | -115.84880 | 13004 ft | 329 kts | 51° |
| 2026-05-03 23:53 | 35.52863 | -115.82778 | 13006 ft | 328 kts | 51° |
| 2026-05-03 23:53 | 35.54379 | -115.80680 | 13005 ft | 330 kts | 51° |
| 2026-05-03 23:53 | 35.55899 | -115.78576 | 13010 ft | 328 kts | 51° |
| 2026-05-03 23:53 | 35.57415 | -115.76473 | 13022 ft | 328 kts | 51° |
| 2026-05-03 23:54 | 35.58927 | -115.74379 | 13026 ft | 328 kts | 52° |
| 2026-05-03 23:54 | 35.60456 | -115.72278 | 13024 ft | 329 kts | 50° |
| 2026-05-03 23:54 | 35.62008 | -115.70207 | 13026 ft | 331 kts | 50° |
| 2026-05-03 23:54 | 35.63562 | -115.68128 | 13031 ft | 330 kts | 50° |
| 2026-05-03 23:55 | 35.65109 | -115.66034 | 13032 ft | 332 kts | 51° |
| 2026-05-03 23:55 | 35.66652 | -115.63940 | 13032 ft | 329 kts | 51° |
| 2026-05-03 23:55 | 35.68185 | -115.61865 | 13037 ft | 328 kts | 50° |
| 2026-05-03 23:55 | 35.69727 | -115.59781 | 13037 ft | 330 kts | 50° |
| 2026-05-03 23:56 | 35.71269 | -115.57694 | 13033 ft | 329 kts | 50° |
| 2026-05-03 23:56 | 35.72851 | -115.55655 | 13032 ft | 331 kts | 40° |
| 2026-05-03 23:56 | 35.74773 | -115.54093 | 13049 ft | 332 kts | 31° |
| 2026-05-03 23:56 | 35.76814 | -115.52742 | 13041 ft | 333 kts | 28° |
| 2026-05-03 23:57 | 35.78858 | -115.51395 | 13055 ft | 334 kts | 30° |
| 2026-05-03 23:57 | 35.80867 | -115.49970 | 13054 ft | 332 kts | 31° |
| 2026-05-03 23:57 | 35.82864 | -115.48534 | 13055 ft | 332 kts | 30° |
| 2026-05-03 23:57 | 35.84875 | -115.47128 | 13047 ft | 334 kts | 31° |
| 2026-05-03 23:58 | 35.86893 | -115.45722 | 13047 ft | 331 kts | 31° |
| 2026-05-03 23:58 | 35.88905 | -115.44310 | 13047 ft | 333 kts | 31° |
| 2026-05-03 23:58 | 35.90908 | -115.42899 | 13048 ft | 333 kts | 32° |
| 2026-05-03 23:58 | 35.92919 | -115.41490 | 13046 ft | 329 kts | 31° |
| 2026-05-03 23:59 | 35.94900 | -115.40111 | 12754 ft | 336 kts | 31° |
| 2026-05-03 23:59 | 35.96949 | -115.38683 | 12228 ft | 341 kts | 31° |
| 2026-05-03 23:59 | 35.99024 | -115.37232 | 11713 ft | 345 kts | 31° |
| 2026-05-03 23:59 | 36.00964 | -115.35509 | 11234 ft | 344 kts | 50° |
| 2026-05-04 00:00 | 36.02219 | -115.33085 | 10930 ft | 330 kts | 73° |
| 2026-05-04 00:00 | 36.02632 | -115.30351 | 10597 ft | 321 kts | 97° |
| 2026-05-04 00:00 | 36.02226 | -115.27701 | 10227 ft | 314 kts | 111° |
| 2026-05-04 00:00 | 36.01559 | -115.25127 | 9746 ft | 313 kts | 112° |
| 2026-05-04 00:01 | 36.00993 | -115.22549 | 9121 ft | 308 kts | 104° |
| 2026-05-04 00:01 | 36.00765 | -115.20043 | 9105 ft | 280 kts | 96° |
| 2026-05-04 00:01 | 36.00744 | -115.17761 | 9089 ft | 253 kts | 96° |
| 2026-05-04 00:01 | 36.00673 | -115.15615 | 9095 ft | 250 kts | 98° |
| 2026-05-04 00:02 | 36.00546 | -115.13473 | 9117 ft | 251 kts | 99° |
| 2026-05-04 00:02 | 36.00424 | -115.11320 | 9115 ft | 251 kts | 99° |
| 2026-05-04 00:02 | 36.00317 | -115.09162 | 9075 ft | 253 kts | 99° |
| 2026-05-04 00:02 | 36.00207 | -115.06951 | 8686 ft | 261 kts | 98° |
| 2026-05-04 00:03 | 36.00091 | -115.04688 | 8341 ft | 267 kts | 98° |
| 2026-05-04 00:03 | 35.99975 | -115.02423 | 8020 ft | 258 kts | 98° |
| 2026-05-04 00:03 | 35.99948 | -115.00303 | 7996 ft | 242 kts | 96° |
| 2026-05-04 00:03 | 35.99940 | -114.98197 | 7968 ft | 243 kts | 96° |
| 2026-05-04 00:04 | 35.99921 | -114.96138 | 7972 ft | 244 kts | 96° |
| 2026-05-04 00:04 | 35.99913 | -114.93990 | 7993 ft | 251 kts | 97° |
| 2026-05-04 00:04 | 35.99919 | -114.91829 | 7827 ft | 253 kts | 97° |
| 2026-05-04 00:04 | 35.99919 | -114.89676 | 7594 ft | 256 kts | 95° |
| 2026-05-04 00:05 | 36.00110 | -114.87421 | 7358 ft | 266 kts | 84° |
| 2026-05-04 00:05 | 36.00643 | -114.85233 | 7117 ft | 274 kts | 71° |
| 2026-05-04 00:05 | 36.01789 | -114.83316 | 6838 ft | 286 kts | 42° |
| 2026-05-04 00:05 | 36.03574 | -114.82180 | 6545 ft | 296 kts | 13° |
| 2026-05-04 00:06 | 36.05648 | -114.82106 | 6226 ft | 299 kts | 346° |
| 2026-05-04 00:06 | 36.07474 | -114.83081 | 5868 ft | 278 kts | 316° |
| 2026-05-04 00:06 | 36.08669 | -114.84807 | 5512 ft | 257 kts | 295° |
| 2026-05-04 00:06 | 36.09575 | -114.86685 | 5121 ft | 249 kts | 285° |
| 2026-05-04 00:07 | 36.09883 | -114.88664 | 4942 ft | 222 kts | 257° |
| 2026-05-04 00:07 | 36.09489 | -114.90325 | 4954 ft | 190 kts | 237° |
| 2026-05-04 00:07 | 36.08891 | -114.91754 | 4973 ft | 188 kts | 231° |
| 2026-05-04 00:07 | 36.08163 | -114.93096 | 4965 ft | 189 kts | 229° |
| 2026-05-04 00:08 | 36.07592 | -114.94591 | 4761 ft | 198 kts | 248° |
| 2026-05-04 00:08 | 36.07407 | -114.96273 | 4534 ft | 198 kts | 259° |
| 2026-05-04 00:08 | 36.07381 | -114.97959 | 4297 ft | 194 kts | 259° |
| 2026-05-04 00:08 | 36.07373 | -114.99592 | 4099 ft | 187 kts | 262° |
| 2026-05-04 00:09 | 36.07375 | -115.01176 | 3869 ft | 181 kts | 262° |
| 2026-05-04 00:09 | 36.07378 | -115.02651 | 3651 ft | 163 kts | 262° |
| 2026-05-04 00:09 | 36.07380 | -115.03973 | 3464 ft | 145 kts | 263° |
| 2026-05-04 00:09 | 36.07369 | -115.05180 | 3261 ft | 138 kts | 259° |
| 2026-05-04 00:10 | 36.07369 | -115.06373 | 3107 ft | 141 kts | 261° |
| 2026-05-04 00:10 | 36.07350 | -115.07558 | 2817 ft | 137 kts | 266° |
| 2026-05-04 00:10 | 36.07377 | -115.08728 | 2554 ft | 134 kts | 264° |
| 2026-05-04 00:10 | 36.07355 | -115.09884 | 2219 ft | 140 kts | 265° |
| 2026-05-04 00:11 | 36.07360 | -115.11054 | 2282 ft | 137 kts | 268° |
| 2026-05-04 00:11 | 36.07369 | -115.12276 | 2166 ft | 142 kts | 266° |
| 2026-05-04 00:11 | 36.07365 | -115.13405 | 2082 ft | 116 kts | 265° |
| 2026-05-04 00:11 | 36.07357 | -115.14150 | 2095 ft | 51 kts | 270° |
| 2026-05-04 00:12 | 36.07408 | -115.14440 | 2101 ft | 21 kts | 298° |
| 2026-05-04 00:12 | 36.07442 | -115.14526 | 2103 ft | 0 kts | 297° |
| 2026-05-04 00:13 | 36.07444 | -115.14529 | 2103 ft | 1 kts | 298° |
| 2026-05-04 00:14 | 36.07449 | -115.14541 | 2104 ft | 2 kts | 298° |
| 2026-05-04 00:14 | 36.07461 | -115.14570 | 2104 ft | 5 kts | 297° |
| 2026-05-04 00:14 | 36.07483 | -115.14615 | 2106 ft | 7 kts | 307° |
| 2026-05-04 00:14 | 36.07519 | -115.14648 | 2108 ft | 6 kts | 338° |
| 2026-05-04 00:15 | 36.07567 | -115.14657 | 2110 ft | 8 kts | 359° |
| 2026-05-04 00:15 | 36.07640 | -115.14658 | 2111 ft | 14 kts | 360° |
| 2026-05-04 00:15 | 36.07752 | -115.14628 | 2108 ft | 15 kts | 46° |
| 2026-05-04 00:15 | 36.07764 | -115.14499 | 2107 ft | 18 kts | 94° |
| 2026-05-04 00:16 | 36.07755 | -115.14327 | 2106 ft | 23 kts | 91° |
| 2026-05-04 00:16 | 36.07754 | -115.14105 | 2104 ft | 29 kts | 90° |
| 2026-05-04 00:16 | 36.07755 | -115.13833 | 2103 ft | 34 kts | 91° |
| 2026-05-04 00:16 | 36.07755 | -115.13522 | 2101 ft | 38 kts | 89° |
| 2026-05-04 00:17 | 36.07755 | -115.13184 | 2095 ft | 42 kts | 90° |
| 2026-05-04 00:17 | 36.07755 | -115.12824 | 2080 ft | 37 kts | 91° |
| 2026-05-04 00:17 | 36.07775 | -115.12636 | 2073 ft | 4 kts | 36° |
| 2026-05-04 00:17 | 36.07794 | -115.12635 | 2073 ft | 3 kts | 359° |
| 2026-05-04 00:18 | 36.07830 | -115.12635 | 2073 ft | 7 kts | 360° |
| 2026-05-04 00:18 | 36.07892 | -115.12636 | 2073 ft | 11 kts | 359° |
| 2026-05-04 00:18 | 36.07975 | -115.12637 | 2073 ft | 14 kts | 359° |
| 2026-05-04 00:18 | 36.08046 | -115.12627 | 2073 ft | 6 kts | 22° |
| 2026-05-04 00:19 | 36.08069 | -115.12591 | 2072 ft | 4 kts | 68° |
| 2026-05-04 00:19 | 36.08070 | -115.12565 | 2071 ft | 4 kts | 89° |
| 2026-05-04 00:19 | 36.08070 | -115.12559 | 2071 ft | 0 kts | 89° |